<?xml version="1.0" encoding="UTF-8" standalone="no" ?>
<gpx xmlns="http://www.topografix.com/GPX/1/1" xmlns:xsi="http://www.w3.org/2001/XMLSchema-instance" xsi:schemaLocation="http://www.topografix.com/GPX/1/1 http://www.topografix.com/GPX/1/1/gpx.xsd" version="1.1" creator="VisuGPX - https://www.visugpx.com">
  <metadata>
    <name>VacancesDricouZoe</name>
  </metadata>
  <trk>
    <name><![CDATA[Journal actif: 2021-07-01 11:27]]></name>
    <trkseg>
      <trkpt lat="44.78349" lon="-1.16656">
        <ele>-10.92</ele>
        <time>2021-07-01T13:27:27Z</time>
      </trkpt>
      <trkpt lat="44.78333" lon="-1.16666">
        <ele>-11.88</ele>
        <time>2021-07-01T13:27:41Z</time>
      </trkpt>
      <trkpt lat="44.78316" lon="-1.16676">
        <ele>-11.88</ele>
        <time>2021-07-01T13:27:59Z</time>
      </trkpt>
      <trkpt lat="44.78308" lon="-1.16681">
        <ele>-10.92</ele>
        <time>2021-07-01T13:28:19Z</time>
      </trkpt>
      <trkpt lat="44.78291" lon="-1.16687">
        <ele>-12.36</ele>
        <time>2021-07-01T13:28:43Z</time>
      </trkpt>
      <trkpt lat="44.78274" lon="-1.16693">
        <ele>-14.76</ele>
        <time>2021-07-01T13:28:57Z</time>
      </trkpt>
      <trkpt lat="44.7827" lon="-1.16694">
        <ele>-17.65</ele>
        <time>2021-07-01T13:29:15Z</time>
      </trkpt>
      <trkpt lat="44.78232" lon="-1.16701">
        <ele>-19.09</ele>
        <time>2021-07-01T13:29:39Z</time>
      </trkpt>
      <trkpt lat="44.78204" lon="-1.16703">
        <ele>-18.61</ele>
        <time>2021-07-01T13:29:56Z</time>
      </trkpt>
      <trkpt lat="44.78184" lon="-1.16705">
        <ele>-15.72</ele>
        <time>2021-07-01T13:30:13Z</time>
      </trkpt>
      <trkpt lat="44.78177" lon="-1.16706">
        <ele>-15.72</ele>
        <time>2021-07-01T13:30:28Z</time>
      </trkpt>
      <trkpt lat="44.78177" lon="-1.16706">
        <ele>-15.24</ele>
        <time>2021-07-01T13:31:11Z</time>
      </trkpt>
      <trkpt lat="44.78154" lon="-1.16707">
        <ele>-17.17</ele>
        <time>2021-07-01T13:31:38Z</time>
      </trkpt>
      <trkpt lat="44.78125" lon="-1.1671">
        <ele>-19.57</ele>
        <time>2021-07-01T13:31:58Z</time>
      </trkpt>
      <trkpt lat="44.78091" lon="-1.16712">
        <ele>-20.53</ele>
        <time>2021-07-01T13:32:22Z</time>
      </trkpt>
      <trkpt lat="44.78068" lon="-1.16714">
        <ele>-19.57</ele>
        <time>2021-07-01T13:32:39Z</time>
      </trkpt>
      <trkpt lat="44.78039" lon="-1.16715">
        <ele>-19.57</ele>
        <time>2021-07-01T13:32:59Z</time>
      </trkpt>
      <trkpt lat="44.78008" lon="-1.16717">
        <ele>-21.01</ele>
        <time>2021-07-01T13:33:20Z</time>
      </trkpt>
      <trkpt lat="44.77981" lon="-1.16717">
        <ele>-18.61</ele>
        <time>2021-07-01T13:33:36Z</time>
      </trkpt>
      <trkpt lat="44.7796" lon="-1.16719">
        <ele>-21.01</ele>
        <time>2021-07-01T13:33:53Z</time>
      </trkpt>
      <trkpt lat="44.77929" lon="-1.16721">
        <ele>-21.49</ele>
        <time>2021-07-01T13:34:08Z</time>
      </trkpt>
      <trkpt lat="44.7789" lon="-1.16723">
        <ele>-16.69</ele>
        <time>2021-07-01T13:34:23Z</time>
      </trkpt>
      <trkpt lat="44.7787" lon="-1.16723">
        <ele>-14.28</ele>
        <time>2021-07-01T13:34:39Z</time>
      </trkpt>
      <trkpt lat="44.77859" lon="-1.16722">
        <ele>-12.84</ele>
        <time>2021-07-01T13:34:55Z</time>
      </trkpt>
      <trkpt lat="44.77847" lon="-1.16719">
        <ele>-11.4</ele>
        <time>2021-07-01T13:35:10Z</time>
      </trkpt>
      <trkpt lat="44.77839" lon="-1.16714">
        <ele>-10.92</ele>
        <time>2021-07-01T13:35:24Z</time>
      </trkpt>
      <trkpt lat="44.77833" lon="-1.1671">
        <ele>-10.92</ele>
        <time>2021-07-01T13:35:39Z</time>
      </trkpt>
      <trkpt lat="44.77816" lon="-1.16699">
        <ele>-10.92</ele>
        <time>2021-07-01T13:36:05Z</time>
      </trkpt>
      <trkpt lat="44.77791" lon="-1.167">
        <ele>-11.4</ele>
        <time>2021-07-01T13:36:22Z</time>
      </trkpt>
      <trkpt lat="44.77752" lon="-1.16739">
        <ele>-11.88</ele>
        <time>2021-07-01T13:36:59Z</time>
      </trkpt>
      <trkpt lat="44.77749" lon="-1.16742">
        <ele>-9.96</ele>
        <time>2021-07-01T13:37:16Z</time>
      </trkpt>
      <trkpt lat="44.77736" lon="-1.16754">
        <ele>-9.96</ele>
        <time>2021-07-01T13:37:49Z</time>
      </trkpt>
      <trkpt lat="44.77728" lon="-1.16761">
        <ele>-9.96</ele>
        <time>2021-07-01T13:38:05Z</time>
      </trkpt>
      <trkpt lat="44.77717" lon="-1.16771">
        <ele>-9</ele>
        <time>2021-07-01T13:38:25Z</time>
      </trkpt>
      <trkpt lat="44.77705" lon="-1.16782">
        <ele>-9</ele>
        <time>2021-07-01T13:38:54Z</time>
      </trkpt>
      <trkpt lat="44.7767" lon="-1.16811">
        <ele>-9.48</ele>
        <time>2021-07-01T13:39:12Z</time>
      </trkpt>
      <trkpt lat="44.77638" lon="-1.16833">
        <ele>-6.11</ele>
        <time>2021-07-01T13:39:26Z</time>
      </trkpt>
      <trkpt lat="44.7759" lon="-1.16879">
        <ele>-5.63</ele>
        <time>2021-07-01T13:39:41Z</time>
      </trkpt>
      <trkpt lat="44.77538" lon="-1.16929">
        <ele>-3.23</ele>
        <time>2021-07-01T13:39:53Z</time>
      </trkpt>
      <trkpt lat="44.77454" lon="-1.17011">
        <ele>2.54</ele>
        <time>2021-07-01T13:40:06Z</time>
      </trkpt>
      <trkpt lat="44.77391" lon="-1.17071">
        <ele>-0.82</ele>
        <time>2021-07-01T13:40:23Z</time>
      </trkpt>
      <trkpt lat="44.77339" lon="-1.17121">
        <ele>-2.27</ele>
        <time>2021-07-01T13:40:40Z</time>
      </trkpt>
      <trkpt lat="44.77282" lon="-1.17176">
        <ele>0.62</ele>
        <time>2021-07-01T13:40:56Z</time>
      </trkpt>
      <trkpt lat="44.77205" lon="-1.1725">
        <ele>2.54</ele>
        <time>2021-07-01T13:41:12Z</time>
      </trkpt>
      <trkpt lat="44.77145" lon="-1.17307">
        <ele>3.98</ele>
        <time>2021-07-01T13:41:26Z</time>
      </trkpt>
      <trkpt lat="44.77134" lon="-1.17318">
        <ele>3.98</ele>
        <time>2021-07-01T13:41:36Z</time>
      </trkpt>
      <trkpt lat="44.77116" lon="-1.17335">
        <ele>3.98</ele>
        <time>2021-07-01T13:42:04Z</time>
      </trkpt>
      <trkpt lat="44.77077" lon="-1.17373">
        <ele>5.42</ele>
        <time>2021-07-01T13:42:20Z</time>
      </trkpt>
      <trkpt lat="44.77037" lon="-1.1741">
        <ele>4.94</ele>
        <time>2021-07-01T13:42:35Z</time>
      </trkpt>
      <trkpt lat="44.76974" lon="-1.17471">
        <ele>2.06</ele>
        <time>2021-07-01T13:42:50Z</time>
      </trkpt>
      <trkpt lat="44.76894" lon="-1.17547">
        <ele>1.58</ele>
        <time>2021-07-01T13:43:03Z</time>
      </trkpt>
      <trkpt lat="44.76824" lon="-1.17614">
        <ele>2.54</ele>
        <time>2021-07-01T13:43:18Z</time>
      </trkpt>
      <trkpt lat="44.76797" lon="-1.1764">
        <ele>4.46</ele>
        <time>2021-07-01T13:43:30Z</time>
      </trkpt>
      <trkpt lat="44.76792" lon="-1.17645">
        <ele>3.5</ele>
        <time>2021-07-01T13:43:50Z</time>
      </trkpt>
      <trkpt lat="44.76761" lon="-1.17675">
        <ele>3.98</ele>
        <time>2021-07-01T13:44:05Z</time>
      </trkpt>
      <trkpt lat="44.76712" lon="-1.17722">
        <ele>6.87</ele>
        <time>2021-07-01T13:44:18Z</time>
      </trkpt>
      <trkpt lat="44.76644" lon="-1.17787">
        <ele>7.35</ele>
        <time>2021-07-01T13:44:32Z</time>
      </trkpt>
      <trkpt lat="44.76601" lon="-1.17829">
        <ele>7.35</ele>
        <time>2021-07-01T13:44:44Z</time>
      </trkpt>
      <trkpt lat="44.76539" lon="-1.1789">
        <ele>5.42</ele>
        <time>2021-07-01T13:45:03Z</time>
      </trkpt>
      <trkpt lat="44.76529" lon="-1.17899">
        <ele>3.98</ele>
        <time>2021-07-01T13:45:14Z</time>
      </trkpt>
      <trkpt lat="44.76512" lon="-1.17914">
        <ele>3.02</ele>
        <time>2021-07-01T13:45:59Z</time>
      </trkpt>
      <trkpt lat="44.76457" lon="-1.17964">
        <ele>2.06</ele>
        <time>2021-07-01T13:46:13Z</time>
      </trkpt>
      <trkpt lat="44.76373" lon="-1.18026">
        <ele>3.02</ele>
        <time>2021-07-01T13:46:33Z</time>
      </trkpt>
      <trkpt lat="44.76317" lon="-1.18042">
        <ele>-0.82</ele>
        <time>2021-07-01T13:46:47Z</time>
      </trkpt>
      <trkpt lat="44.76264" lon="-1.1804">
        <ele>-3.23</ele>
        <time>2021-07-01T13:47:03Z</time>
      </trkpt>
      <trkpt lat="44.76249" lon="-1.18038">
        <ele>-2.75</ele>
        <time>2021-07-01T13:48:59Z</time>
      </trkpt>
      <trkpt lat="44.76172" lon="-1.18028">
        <ele>-2.75</ele>
        <time>2021-07-01T13:49:09Z</time>
      </trkpt>
      <trkpt lat="44.75992" lon="-1.18011">
        <ele>-2.75</ele>
        <time>2021-07-01T13:49:28Z</time>
      </trkpt>
      <trkpt lat="44.75787" lon="-1.18005">
        <ele>0.14</ele>
        <time>2021-07-01T13:49:46Z</time>
      </trkpt>
      <trkpt lat="44.75614" lon="-1.18007">
        <ele>-0.34</ele>
        <time>2021-07-01T13:50:01Z</time>
      </trkpt>
      <trkpt lat="44.75432" lon="-1.18029">
        <ele>2.54</ele>
        <time>2021-07-01T13:50:18Z</time>
      </trkpt>
      <trkpt lat="44.75272" lon="-1.18049">
        <ele>2.54</ele>
        <time>2021-07-01T13:50:34Z</time>
      </trkpt>
      <trkpt lat="44.75152" lon="-1.18074">
        <ele>1.58</ele>
        <time>2021-07-01T13:50:49Z</time>
      </trkpt>
      <trkpt lat="44.75136" lon="-1.18077">
        <ele>2.54</ele>
        <time>2021-07-01T13:50:52Z</time>
      </trkpt>
      <trkpt lat="44.75127" lon="-1.18079">
        <ele>2.54</ele>
        <time>2021-07-01T13:50:53Z</time>
      </trkpt>
      <trkpt lat="44.75124" lon="-1.18084">
        <ele>2.54</ele>
        <time>2021-07-01T13:50:54Z</time>
      </trkpt>
      <trkpt lat="44.7512" lon="-1.18089">
        <ele>2.54</ele>
        <time>2021-07-01T13:50:55Z</time>
      </trkpt>
      <trkpt lat="44.7512" lon="-1.18089">
        <ele>2.54</ele>
        <time>2021-07-01T13:50:56Z</time>
      </trkpt>
      <trkpt lat="44.75114" lon="-1.18093">
        <ele>2.54</ele>
        <time>2021-07-01T13:50:57Z</time>
      </trkpt>
      <trkpt lat="44.75109" lon="-1.18094">
        <ele>2.06</ele>
        <time>2021-07-01T13:50:58Z</time>
      </trkpt>
      <trkpt lat="44.75099" lon="-1.18088">
        <ele>2.06</ele>
        <time>2021-07-01T13:50:59Z</time>
      </trkpt>
      <trkpt lat="44.75093" lon="-1.18086">
        <ele>1.58</ele>
        <time>2021-07-01T13:51:00Z</time>
      </trkpt>
      <trkpt lat="44.75087" lon="-1.18084">
        <ele>1.58</ele>
        <time>2021-07-01T13:51:01Z</time>
      </trkpt>
      <trkpt lat="44.75081" lon="-1.18083">
        <ele>1.58</ele>
        <time>2021-07-01T13:51:02Z</time>
      </trkpt>
      <trkpt lat="44.75081" lon="-1.18083">
        <ele>1.1</ele>
        <time>2021-07-01T13:51:03Z</time>
      </trkpt>
      <trkpt lat="44.75073" lon="-1.18082">
        <ele>0.62</ele>
        <time>2021-07-01T13:51:04Z</time>
      </trkpt>
      <trkpt lat="44.74963" lon="-1.18085">
        <ele>1.58</ele>
        <time>2021-07-01T13:51:16Z</time>
      </trkpt>
      <trkpt lat="44.74794" lon="-1.18104">
        <ele>5.42</ele>
        <time>2021-07-01T13:51:34Z</time>
      </trkpt>
      <trkpt lat="44.74642" lon="-1.18121">
        <ele>3.5</ele>
        <time>2021-07-01T13:51:51Z</time>
      </trkpt>
      <trkpt lat="44.74592" lon="-1.18127">
        <ele>2.06</ele>
        <time>2021-07-01T13:52:00Z</time>
      </trkpt>
      <trkpt lat="44.74529" lon="-1.18133">
        <ele>4.94</ele>
        <time>2021-07-01T13:52:11Z</time>
      </trkpt>
      <trkpt lat="44.74476" lon="-1.18133">
        <ele>4.94</ele>
        <time>2021-07-01T13:52:23Z</time>
      </trkpt>
      <trkpt lat="44.74453" lon="-1.18133">
        <ele>4.46</ele>
        <time>2021-07-01T13:52:32Z</time>
      </trkpt>
      <trkpt lat="44.74385" lon="-1.18152">
        <ele>3.5</ele>
        <time>2021-07-01T13:52:42Z</time>
      </trkpt>
      <trkpt lat="44.74307" lon="-1.18236">
        <ele>1.58</ele>
        <time>2021-07-01T13:52:54Z</time>
      </trkpt>
      <trkpt lat="44.74225" lon="-1.18336">
        <ele>-2.75</ele>
        <time>2021-07-01T13:53:05Z</time>
      </trkpt>
      <trkpt lat="44.74167" lon="-1.18478">
        <ele>-2.75</ele>
        <time>2021-07-01T13:53:15Z</time>
      </trkpt>
      <trkpt lat="44.74094" lon="-1.18695">
        <ele>-4.67</ele>
        <time>2021-07-01T13:53:29Z</time>
      </trkpt>
      <trkpt lat="44.74009" lon="-1.18905">
        <ele>-6.59</ele>
        <time>2021-07-01T13:53:40Z</time>
      </trkpt>
      <trkpt lat="44.73847" lon="-1.19239">
        <ele>-4.19</ele>
        <time>2021-07-01T13:53:57Z</time>
      </trkpt>
      <trkpt lat="44.73726" lon="-1.19481">
        <ele>-0.82</ele>
        <time>2021-07-01T13:54:10Z</time>
      </trkpt>
      <trkpt lat="44.73639" lon="-1.1961">
        <ele>3.02</ele>
        <time>2021-07-01T13:54:18Z</time>
      </trkpt>
      <trkpt lat="44.73601" lon="-1.19646">
        <ele>5.42</ele>
        <time>2021-07-01T13:54:21Z</time>
      </trkpt>
      <trkpt lat="44.73586" lon="-1.19655">
        <ele>6.39</ele>
        <time>2021-07-01T13:54:22Z</time>
      </trkpt>
      <trkpt lat="44.73572" lon="-1.19663">
        <ele>6.87</ele>
        <time>2021-07-01T13:54:23Z</time>
      </trkpt>
      <trkpt lat="44.73556" lon="-1.19664">
        <ele>5.91</ele>
        <time>2021-07-01T13:54:24Z</time>
      </trkpt>
      <trkpt lat="44.7354" lon="-1.19664">
        <ele>4.46</ele>
        <time>2021-07-01T13:54:25Z</time>
      </trkpt>
      <trkpt lat="44.73524" lon="-1.19665">
        <ele>3.02</ele>
        <time>2021-07-01T13:54:26Z</time>
      </trkpt>
      <trkpt lat="44.73507" lon="-1.19665">
        <ele>1.58</ele>
        <time>2021-07-01T13:54:27Z</time>
      </trkpt>
      <trkpt lat="44.73245" lon="-1.19627">
        <ele>2.06</ele>
        <time>2021-07-01T13:54:43Z</time>
      </trkpt>
      <trkpt lat="44.73025" lon="-1.19608">
        <ele>1.58</ele>
        <time>2021-07-01T13:54:58Z</time>
      </trkpt>
      <trkpt lat="44.72925" lon="-1.19661">
        <ele>1.1</ele>
        <time>2021-07-01T13:55:06Z</time>
      </trkpt>
      <trkpt lat="44.72862" lon="-1.19706">
        <ele>-0.82</ele>
        <time>2021-07-01T13:55:13Z</time>
      </trkpt>
      <trkpt lat="44.72802" lon="-1.19769">
        <ele>-2.27</ele>
        <time>2021-07-01T13:55:26Z</time>
      </trkpt>
      <trkpt lat="44.72762" lon="-1.19811">
        <ele>-4.67</ele>
        <time>2021-07-01T13:55:38Z</time>
      </trkpt>
      <trkpt lat="44.72678" lon="-1.19904">
        <ele>-6.59</ele>
        <time>2021-07-01T13:55:51Z</time>
      </trkpt>
      <trkpt lat="44.72536" lon="-1.2005">
        <ele>-5.63</ele>
        <time>2021-07-01T13:56:07Z</time>
      </trkpt>
      <trkpt lat="44.72474" lon="-1.20114">
        <ele>-4.67</ele>
        <time>2021-07-01T13:56:16Z</time>
      </trkpt>
      <trkpt lat="44.72411" lon="-1.20202">
        <ele>-6.11</ele>
        <time>2021-07-01T13:56:29Z</time>
      </trkpt>
      <trkpt lat="44.72373" lon="-1.20317">
        <ele>-4.19</ele>
        <time>2021-07-01T13:56:42Z</time>
      </trkpt>
      <trkpt lat="44.72355" lon="-1.2038">
        <ele>-3.71</ele>
        <time>2021-07-01T13:56:51Z</time>
      </trkpt>
      <trkpt lat="44.72353" lon="-1.20388">
        <ele>-3.71</ele>
        <time>2021-07-01T13:56:52Z</time>
      </trkpt>
      <trkpt lat="44.72351" lon="-1.20395">
        <ele>-3.23</ele>
        <time>2021-07-01T13:56:53Z</time>
      </trkpt>
      <trkpt lat="44.72358" lon="-1.20412">
        <ele>-3.23</ele>
        <time>2021-07-01T13:56:55Z</time>
      </trkpt>
      <trkpt lat="44.72358" lon="-1.20419">
        <ele>-3.23</ele>
        <time>2021-07-01T13:56:56Z</time>
      </trkpt>
      <trkpt lat="44.72353" lon="-1.20426">
        <ele>-3.23</ele>
        <time>2021-07-01T13:56:57Z</time>
      </trkpt>
      <trkpt lat="44.7235" lon="-1.20429">
        <ele>-3.71</ele>
        <time>2021-07-01T13:56:59Z</time>
      </trkpt>
      <trkpt lat="44.7234" lon="-1.20439">
        <ele>-3.71</ele>
        <time>2021-07-01T13:57:00Z</time>
      </trkpt>
      <trkpt lat="44.72338" lon="-1.20447">
        <ele>-3.23</ele>
        <time>2021-07-01T13:57:01Z</time>
      </trkpt>
      <trkpt lat="44.72304" lon="-1.20562">
        <ele>-2.27</ele>
        <time>2021-07-01T13:57:10Z</time>
      </trkpt>
      <trkpt lat="44.72235" lon="-1.20797">
        <ele>0.62</ele>
        <time>2021-07-01T13:57:26Z</time>
      </trkpt>
      <trkpt lat="44.72191" lon="-1.20929">
        <ele>-1.79</ele>
        <time>2021-07-01T13:57:35Z</time>
      </trkpt>
      <trkpt lat="44.72183" lon="-1.20939">
        <ele>-2.27</ele>
        <time>2021-07-01T13:57:36Z</time>
      </trkpt>
      <trkpt lat="44.72174" lon="-1.20951">
        <ele>-3.23</ele>
        <time>2021-07-01T13:57:37Z</time>
      </trkpt>
      <trkpt lat="44.72165" lon="-1.20962">
        <ele>-2.75</ele>
        <time>2021-07-01T13:57:38Z</time>
      </trkpt>
      <trkpt lat="44.72157" lon="-1.20972">
        <ele>-3.23</ele>
        <time>2021-07-01T13:57:39Z</time>
      </trkpt>
      <trkpt lat="44.72146" lon="-1.20979">
        <ele>-2.75</ele>
        <time>2021-07-01T13:57:40Z</time>
      </trkpt>
      <trkpt lat="44.72033" lon="-1.21023">
        <ele>-1.3</ele>
        <time>2021-07-01T13:57:50Z</time>
      </trkpt>
      <trkpt lat="44.71862" lon="-1.21085">
        <ele>-3.71</ele>
        <time>2021-07-01T13:58:03Z</time>
      </trkpt>
      <trkpt lat="44.71744" lon="-1.21178">
        <ele>-4.67</ele>
        <time>2021-07-01T13:58:13Z</time>
      </trkpt>
      <trkpt lat="44.71681" lon="-1.21233">
        <ele>-5.15</ele>
        <time>2021-07-01T13:58:23Z</time>
      </trkpt>
      <trkpt lat="44.71651" lon="-1.21259">
        <ele>-4.19</ele>
        <time>2021-07-01T13:58:31Z</time>
      </trkpt>
      <trkpt lat="44.71637" lon="-1.21271">
        <ele>-4.19</ele>
        <time>2021-07-01T13:58:39Z</time>
      </trkpt>
      <trkpt lat="44.71604" lon="-1.213">
        <ele>-3.71</ele>
        <time>2021-07-01T13:58:48Z</time>
      </trkpt>
      <trkpt lat="44.716" lon="-1.21303">
        <ele>-3.71</ele>
        <time>2021-07-01T13:58:49Z</time>
      </trkpt>
      <trkpt lat="44.71544" lon="-1.21365">
        <ele>-3.23</ele>
        <time>2021-07-01T13:59:01Z</time>
      </trkpt>
      <trkpt lat="44.71466" lon="-1.21474">
        <ele>-7.07</ele>
        <time>2021-07-01T13:59:12Z</time>
      </trkpt>
      <trkpt lat="44.71361" lon="-1.21633">
        <ele>-9.96</ele>
        <time>2021-07-01T13:59:25Z</time>
      </trkpt>
      <trkpt lat="44.71208" lon="-1.21867">
        <ele>-8.51</ele>
        <time>2021-07-01T13:59:43Z</time>
      </trkpt>
      <trkpt lat="44.71144" lon="-1.22017">
        <ele>-7.55</ele>
        <time>2021-07-01T13:59:53Z</time>
      </trkpt>
      <trkpt lat="44.71084" lon="-1.22171">
        <ele>-8.03</ele>
        <time>2021-07-01T14:00:04Z</time>
      </trkpt>
      <trkpt lat="44.70985" lon="-1.2235">
        <ele>-7.55</ele>
        <time>2021-07-01T14:00:22Z</time>
      </trkpt>
      <trkpt lat="44.70918" lon="-1.22443">
        <ele>-4.67</ele>
        <time>2021-07-01T14:00:33Z</time>
      </trkpt>
      <trkpt lat="44.70831" lon="-1.22479">
        <ele>-2.75</ele>
        <time>2021-07-01T14:00:43Z</time>
      </trkpt>
      <trkpt lat="44.70759" lon="-1.22469">
        <ele>-2.75</ele>
        <time>2021-07-01T14:00:53Z</time>
      </trkpt>
      <trkpt lat="44.70753" lon="-1.22467">
        <ele>-1.79</ele>
        <time>2021-07-01T14:01:02Z</time>
      </trkpt>
      <trkpt lat="44.70734" lon="-1.22463">
        <ele>-1.79</ele>
        <time>2021-07-01T14:01:12Z</time>
      </trkpt>
      <trkpt lat="44.70732" lon="-1.22463">
        <ele>-1.79</ele>
        <time>2021-07-01T14:01:13Z</time>
      </trkpt>
      <trkpt lat="44.70736" lon="-1.2246">
        <ele>-1.79</ele>
        <time>2021-07-01T14:01:14Z</time>
      </trkpt>
      <trkpt lat="44.70735" lon="-1.22456">
        <ele>-1.79</ele>
        <time>2021-07-01T14:01:15Z</time>
      </trkpt>
      <trkpt lat="44.70734" lon="-1.22452">
        <ele>-1.79</ele>
        <time>2021-07-01T14:01:16Z</time>
      </trkpt>
      <trkpt lat="44.70733" lon="-1.22447">
        <ele>-1.79</ele>
        <time>2021-07-01T14:01:17Z</time>
      </trkpt>
      <trkpt lat="44.70732" lon="-1.22439">
        <ele>-2.27</ele>
        <time>2021-07-01T14:01:19Z</time>
      </trkpt>
      <trkpt lat="44.70731" lon="-1.22433">
        <ele>-2.27</ele>
        <time>2021-07-01T14:01:20Z</time>
      </trkpt>
      <trkpt lat="44.70711" lon="-1.22328">
        <ele>-4.67</ele>
        <time>2021-07-01T14:01:38Z</time>
      </trkpt>
      <trkpt lat="44.70691" lon="-1.22312">
        <ele>-4.67</ele>
        <time>2021-07-01T14:01:47Z</time>
      </trkpt>
      <trkpt lat="44.70689" lon="-1.22311">
        <ele>-4.67</ele>
        <time>2021-07-01T14:01:49Z</time>
      </trkpt>
      <trkpt lat="44.70689" lon="-1.22311">
        <ele>-4.67</ele>
        <time>2021-07-01T14:01:50Z</time>
      </trkpt>
      <trkpt lat="44.70689" lon="-1.22311">
        <ele>-4.67</ele>
        <time>2021-07-01T14:01:51Z</time>
      </trkpt>
      <trkpt lat="44.70692" lon="-1.22301">
        <ele>-4.67</ele>
        <time>2021-07-01T14:01:52Z</time>
      </trkpt>
      <trkpt lat="44.70693" lon="-1.22298">
        <ele>-4.19</ele>
        <time>2021-07-01T14:01:53Z</time>
      </trkpt>
      <trkpt lat="44.70697" lon="-1.22285">
        <ele>-4.67</ele>
        <time>2021-07-01T14:01:59Z</time>
      </trkpt>
      <trkpt lat="44.70698" lon="-1.22278">
        <ele>-4.67</ele>
        <time>2021-07-01T14:02:00Z</time>
      </trkpt>
      <trkpt lat="44.70699" lon="-1.22279">
        <ele>-4.19</ele>
        <time>2021-07-01T14:02:01Z</time>
      </trkpt>
      <trkpt lat="44.70699" lon="-1.22279">
        <ele>-4.19</ele>
        <time>2021-07-01T14:02:02Z</time>
      </trkpt>
      <trkpt lat="44.707" lon="-1.22279">
        <ele>-4.19</ele>
        <time>2021-07-01T14:02:03Z</time>
      </trkpt>
      <trkpt lat="44.707" lon="-1.22279">
        <ele>-4.19</ele>
        <time>2021-07-01T14:02:04Z</time>
      </trkpt>
      <trkpt lat="44.70703" lon="-1.22291">
        <ele>-4.19</ele>
        <time>2021-07-01T14:02:09Z</time>
      </trkpt>
      <trkpt lat="44.70703" lon="-1.22293">
        <ele>-4.19</ele>
        <time>2021-07-01T14:02:10Z</time>
      </trkpt>
      <trkpt lat="44.70703" lon="-1.22295">
        <ele>-4.19</ele>
        <time>2021-07-01T14:02:11Z</time>
      </trkpt>
      <trkpt lat="44.70704" lon="-1.22296">
        <ele>-4.19</ele>
        <time>2021-07-01T14:02:12Z</time>
      </trkpt>
      <trkpt lat="44.70704" lon="-1.22296">
        <ele>-4.19</ele>
        <time>2021-07-01T14:02:13Z</time>
      </trkpt>
      <trkpt lat="44.70714" lon="-1.22345">
        <ele>-4.67</ele>
        <time>2021-07-01T14:02:28Z</time>
      </trkpt>
      <trkpt lat="44.70727" lon="-1.22416">
        <ele>-3.23</ele>
        <time>2021-07-01T14:02:43Z</time>
      </trkpt>
      <trkpt lat="44.7073" lon="-1.22428">
        <ele>-3.23</ele>
        <time>2021-07-01T14:02:55Z</time>
      </trkpt>
      <trkpt lat="44.70716" lon="-1.2242">
        <ele>-12.84</ele>
        <time>2021-07-01T14:16:34Z</time>
      </trkpt>
      <trkpt lat="44.70728" lon="-1.22428">
        <ele>2.06</ele>
        <time>2021-07-01T14:16:58Z</time>
      </trkpt>
      <trkpt lat="44.7073" lon="-1.22431">
        <ele>1.58</ele>
        <time>2021-07-01T14:17:03Z</time>
      </trkpt>
      <trkpt lat="44.70734" lon="-1.22454">
        <ele>2.06</ele>
        <time>2021-07-01T14:17:15Z</time>
      </trkpt>
      <trkpt lat="44.70733" lon="-1.22463">
        <ele>1.58</ele>
        <time>2021-07-01T14:17:24Z</time>
      </trkpt>
      <trkpt lat="44.70731" lon="-1.22463">
        <ele>1.58</ele>
        <time>2021-07-01T14:17:25Z</time>
      </trkpt>
      <trkpt lat="44.70728" lon="-1.22462">
        <ele>1.58</ele>
        <time>2021-07-01T14:17:26Z</time>
      </trkpt>
      <trkpt lat="44.70665" lon="-1.22463">
        <ele>0.62</ele>
        <time>2021-07-01T14:17:37Z</time>
      </trkpt>
      <trkpt lat="44.70642" lon="-1.22469">
        <ele>0.62</ele>
        <time>2021-07-01T14:17:39Z</time>
      </trkpt>
      <trkpt lat="44.70561" lon="-1.22515">
        <ele>0.14</ele>
        <time>2021-07-01T14:17:50Z</time>
      </trkpt>
      <trkpt lat="44.70457" lon="-1.22617">
        <ele>-0.82</ele>
        <time>2021-07-01T14:18:05Z</time>
      </trkpt>
      <trkpt lat="44.70388" lon="-1.22691">
        <ele>-1.79</ele>
        <time>2021-07-01T14:18:17Z</time>
      </trkpt>
      <trkpt lat="44.70317" lon="-1.2276">
        <ele>-4.19</ele>
        <time>2021-07-01T14:18:30Z</time>
      </trkpt>
      <trkpt lat="44.70311" lon="-1.22766">
        <ele>-4.67</ele>
        <time>2021-07-01T14:18:37Z</time>
      </trkpt>
      <trkpt lat="44.70263" lon="-1.22816">
        <ele>-2.75</ele>
        <time>2021-07-01T14:18:48Z</time>
      </trkpt>
      <trkpt lat="44.70193" lon="-1.22891">
        <ele>-3.23</ele>
        <time>2021-07-01T14:19:03Z</time>
      </trkpt>
      <trkpt lat="44.70133" lon="-1.22951">
        <ele>-3.23</ele>
        <time>2021-07-01T14:19:15Z</time>
      </trkpt>
      <trkpt lat="44.70042" lon="-1.2299">
        <ele>-2.75</ele>
        <time>2021-07-01T14:19:28Z</time>
      </trkpt>
      <trkpt lat="44.69962" lon="-1.22983">
        <ele>-1.79</ele>
        <time>2021-07-01T14:19:39Z</time>
      </trkpt>
      <trkpt lat="44.69881" lon="-1.22984">
        <ele>1.58</ele>
        <time>2021-07-01T14:19:48Z</time>
      </trkpt>
      <trkpt lat="44.69843" lon="-1.22999">
        <ele>3.98</ele>
        <time>2021-07-01T14:19:53Z</time>
      </trkpt>
      <trkpt lat="44.69815" lon="-1.23017">
        <ele>4.46</ele>
        <time>2021-07-01T14:19:54Z</time>
      </trkpt>
      <trkpt lat="44.69769" lon="-1.23071">
        <ele>3.98</ele>
        <time>2021-07-01T14:20:02Z</time>
      </trkpt>
      <trkpt lat="44.69727" lon="-1.23129">
        <ele>1.58</ele>
        <time>2021-07-01T14:20:11Z</time>
      </trkpt>
      <trkpt lat="44.69647" lon="-1.23227">
        <ele>3.98</ele>
        <time>2021-07-01T14:20:20Z</time>
      </trkpt>
      <trkpt lat="44.6952" lon="-1.23363">
        <ele>8.31</ele>
        <time>2021-07-01T14:20:32Z</time>
      </trkpt>
      <trkpt lat="44.69467" lon="-1.23445">
        <ele>11.19</ele>
        <time>2021-07-01T14:20:41Z</time>
      </trkpt>
      <trkpt lat="44.69417" lon="-1.23526">
        <ele>12.15</ele>
        <time>2021-07-01T14:20:50Z</time>
      </trkpt>
      <trkpt lat="44.69338" lon="-1.23674">
        <ele>4.94</ele>
        <time>2021-07-01T14:21:03Z</time>
      </trkpt>
      <trkpt lat="44.69249" lon="-1.23839">
        <ele>4.94</ele>
        <time>2021-07-01T14:21:13Z</time>
      </trkpt>
      <trkpt lat="44.69168" lon="-1.23924">
        <ele>4.94</ele>
        <time>2021-07-01T14:21:20Z</time>
      </trkpt>
      <trkpt lat="44.69047" lon="-1.23959">
        <ele>6.87</ele>
        <time>2021-07-01T14:21:28Z</time>
      </trkpt>
      <trkpt lat="44.6894" lon="-1.23964">
        <ele>8.79</ele>
        <time>2021-07-01T14:21:37Z</time>
      </trkpt>
      <trkpt lat="44.68848" lon="-1.23918">
        <ele>10.71</ele>
        <time>2021-07-01T14:21:45Z</time>
      </trkpt>
      <trkpt lat="44.6874" lon="-1.2381">
        <ele>1.1</ele>
        <time>2021-07-01T14:21:55Z</time>
      </trkpt>
      <trkpt lat="44.68682" lon="-1.23788">
        <ele>6.39</ele>
        <time>2021-07-01T14:22:02Z</time>
      </trkpt>
      <trkpt lat="44.68676" lon="-1.23789">
        <ele>7.35</ele>
        <time>2021-07-01T14:22:03Z</time>
      </trkpt>
      <trkpt lat="44.68671" lon="-1.2379">
        <ele>8.79</ele>
        <time>2021-07-01T14:22:04Z</time>
      </trkpt>
      <trkpt lat="44.68666" lon="-1.2379">
        <ele>8.31</ele>
        <time>2021-07-01T14:22:05Z</time>
      </trkpt>
      <trkpt lat="44.68662" lon="-1.23791">
        <ele>7.35</ele>
        <time>2021-07-01T14:22:06Z</time>
      </trkpt>
      <trkpt lat="44.68658" lon="-1.23791">
        <ele>6.39</ele>
        <time>2021-07-01T14:22:07Z</time>
      </trkpt>
      <trkpt lat="44.68658" lon="-1.23791">
        <ele>6.87</ele>
        <time>2021-07-01T14:22:08Z</time>
      </trkpt>
      <trkpt lat="44.68642" lon="-1.23805">
        <ele>6.87</ele>
        <time>2021-07-01T14:22:10Z</time>
      </trkpt>
      <trkpt lat="44.68632" lon="-1.23821">
        <ele>6.87</ele>
        <time>2021-07-01T14:22:11Z</time>
      </trkpt>
      <trkpt lat="44.68632" lon="-1.23821">
        <ele>7.83</ele>
        <time>2021-07-01T14:22:12Z</time>
      </trkpt>
      <trkpt lat="44.68632" lon="-1.23821">
        <ele>7.35</ele>
        <time>2021-07-01T14:22:13Z</time>
      </trkpt>
      <trkpt lat="44.68625" lon="-1.23831">
        <ele>6.39</ele>
        <time>2021-07-01T14:22:14Z</time>
      </trkpt>
      <trkpt lat="44.68617" lon="-1.23857">
        <ele>8.31</ele>
        <time>2021-07-01T14:22:15Z</time>
      </trkpt>
      <trkpt lat="44.68588" lon="-1.24003">
        <ele>7.35</ele>
        <time>2021-07-01T14:22:24Z</time>
      </trkpt>
      <trkpt lat="44.68582" lon="-1.24149">
        <ele>6.87</ele>
        <time>2021-07-01T14:22:33Z</time>
      </trkpt>
      <trkpt lat="44.68635" lon="-1.24342">
        <ele>3.5</ele>
        <time>2021-07-01T14:22:45Z</time>
      </trkpt>
      <trkpt lat="44.68658" lon="-1.24493">
        <ele>2.54</ele>
        <time>2021-07-01T14:22:54Z</time>
      </trkpt>
      <trkpt lat="44.6864" lon="-1.2467">
        <ele>0.14</ele>
        <time>2021-07-01T14:23:05Z</time>
      </trkpt>
      <trkpt lat="44.68589" lon="-1.24808">
        <ele>-2.75</ele>
        <time>2021-07-01T14:23:14Z</time>
      </trkpt>
      <trkpt lat="44.68572" lon="-1.2483">
        <ele>-1.79</ele>
        <time>2021-07-01T14:23:15Z</time>
      </trkpt>
      <trkpt lat="44.68562" lon="-1.24841">
        <ele>-1.79</ele>
        <time>2021-07-01T14:23:16Z</time>
      </trkpt>
      <trkpt lat="44.68562" lon="-1.24841">
        <ele>-2.75</ele>
        <time>2021-07-01T14:23:17Z</time>
      </trkpt>
      <trkpt lat="44.6855" lon="-1.24848">
        <ele>-3.23</ele>
        <time>2021-07-01T14:23:18Z</time>
      </trkpt>
      <trkpt lat="44.68538" lon="-1.24854">
        <ele>-3.23</ele>
        <time>2021-07-01T14:23:19Z</time>
      </trkpt>
      <trkpt lat="44.68526" lon="-1.2486">
        <ele>-3.71</ele>
        <time>2021-07-01T14:23:20Z</time>
      </trkpt>
      <trkpt lat="44.68513" lon="-1.24862">
        <ele>-4.19</ele>
        <time>2021-07-01T14:23:21Z</time>
      </trkpt>
      <trkpt lat="44.685" lon="-1.24864">
        <ele>-4.19</ele>
        <time>2021-07-01T14:23:22Z</time>
      </trkpt>
      <trkpt lat="44.68298" lon="-1.24895">
        <ele>-3.71</ele>
        <time>2021-07-01T14:23:36Z</time>
      </trkpt>
      <trkpt lat="44.6814" lon="-1.24896">
        <ele>-5.63</ele>
        <time>2021-07-01T14:23:47Z</time>
      </trkpt>
      <trkpt lat="44.67877" lon="-1.24861">
        <ele>-1.3</ele>
        <time>2021-07-01T14:24:05Z</time>
      </trkpt>
      <trkpt lat="44.67683" lon="-1.24843">
        <ele>2.06</ele>
        <time>2021-07-01T14:24:17Z</time>
      </trkpt>
      <trkpt lat="44.67655" lon="-1.24847">
        <ele>1.1</ele>
        <time>2021-07-01T14:24:19Z</time>
      </trkpt>
      <trkpt lat="44.67642" lon="-1.24852">
        <ele>0.62</ele>
        <time>2021-07-01T14:24:20Z</time>
      </trkpt>
      <trkpt lat="44.67629" lon="-1.24859">
        <ele>-0.34</ele>
        <time>2021-07-01T14:24:21Z</time>
      </trkpt>
      <trkpt lat="44.67629" lon="-1.24859">
        <ele>-0.34</ele>
        <time>2021-07-01T14:24:22Z</time>
      </trkpt>
      <trkpt lat="44.67616" lon="-1.24866">
        <ele>-0.82</ele>
        <time>2021-07-01T14:24:23Z</time>
      </trkpt>
      <trkpt lat="44.67515" lon="-1.24938">
        <ele>-5.15</ele>
        <time>2021-07-01T14:24:30Z</time>
      </trkpt>
      <trkpt lat="44.67501" lon="-1.24943">
        <ele>-5.15</ele>
        <time>2021-07-01T14:24:31Z</time>
      </trkpt>
      <trkpt lat="44.6738" lon="-1.24972">
        <ele>-2.75</ele>
        <time>2021-07-01T14:24:41Z</time>
      </trkpt>
      <trkpt lat="44.67314" lon="-1.24984">
        <ele>-4.19</ele>
        <time>2021-07-01T14:24:47Z</time>
      </trkpt>
      <trkpt lat="44.67311" lon="-1.24984">
        <ele>-4.19</ele>
        <time>2021-07-01T14:24:48Z</time>
      </trkpt>
      <trkpt lat="44.67308" lon="-1.24985">
        <ele>-4.19</ele>
        <time>2021-07-01T14:24:49Z</time>
      </trkpt>
      <trkpt lat="44.67307" lon="-1.24985">
        <ele>-4.67</ele>
        <time>2021-07-01T14:24:50Z</time>
      </trkpt>
      <trkpt lat="44.67314" lon="-1.24984">
        <ele>-5.63</ele>
        <time>2021-07-01T14:24:53Z</time>
      </trkpt>
      <trkpt lat="44.67313" lon="-1.24957">
        <ele>-6.59</ele>
        <time>2021-07-01T14:24:56Z</time>
      </trkpt>
      <trkpt lat="44.67312" lon="-1.24939">
        <ele>-9</ele>
        <time>2021-07-01T14:25:05Z</time>
      </trkpt>
      <trkpt lat="44.67316" lon="-1.24926">
        <ele>-7.07</ele>
        <time>2021-07-01T14:25:18Z</time>
      </trkpt>
      <trkpt lat="44.67319" lon="-1.2492">
        <ele>-7.55</ele>
        <time>2021-07-01T14:27:03Z</time>
      </trkpt>
      <trkpt lat="44.67328" lon="-1.24921">
        <ele>-8.51</ele>
        <time>2021-07-01T14:27:08Z</time>
      </trkpt>
      <trkpt lat="44.67344" lon="-1.24943">
        <ele>-8.51</ele>
        <time>2021-07-01T14:27:22Z</time>
      </trkpt>
      <trkpt lat="44.67356" lon="-1.24967">
        <ele>-5.15</ele>
        <time>2021-07-01T14:27:35Z</time>
      </trkpt>
      <trkpt lat="44.67357" lon="-1.24969">
        <ele>-3.71</ele>
        <time>2021-07-01T14:27:55Z</time>
      </trkpt>
      <trkpt lat="44.67354" lon="-1.24976">
        <ele>-4.19</ele>
        <time>2021-07-01T14:27:58Z</time>
      </trkpt>
      <trkpt lat="44.67351" lon="-1.24977">
        <ele>-4.67</ele>
        <time>2021-07-01T14:27:59Z</time>
      </trkpt>
      <trkpt lat="44.67346" lon="-1.24978">
        <ele>-4.67</ele>
        <time>2021-07-01T14:28:00Z</time>
      </trkpt>
      <trkpt lat="44.67291" lon="-1.24988">
        <ele>-7.07</ele>
        <time>2021-07-01T14:28:06Z</time>
      </trkpt>
      <trkpt lat="44.67135" lon="-1.25016">
        <ele>-5.63</ele>
        <time>2021-07-01T14:28:17Z</time>
      </trkpt>
      <trkpt lat="44.66998" lon="-1.25014">
        <ele>-7.07</ele>
        <time>2021-07-01T14:28:26Z</time>
      </trkpt>
      <trkpt lat="44.66814" lon="-1.2499">
        <ele>0.14</ele>
        <time>2021-07-01T14:28:39Z</time>
      </trkpt>
      <trkpt lat="44.6658" lon="-1.24994">
        <ele>1.58</ele>
        <time>2021-07-01T14:28:51Z</time>
      </trkpt>
      <trkpt lat="44.66346" lon="-1.25">
        <ele>5.91</ele>
        <time>2021-07-01T14:29:06Z</time>
      </trkpt>
      <trkpt lat="44.66295" lon="-1.25003">
        <ele>5.91</ele>
        <time>2021-07-01T14:29:09Z</time>
      </trkpt>
      <trkpt lat="44.66279" lon="-1.25009">
        <ele>5.91</ele>
        <time>2021-07-01T14:29:10Z</time>
      </trkpt>
      <trkpt lat="44.66262" lon="-1.25015">
        <ele>6.39</ele>
        <time>2021-07-01T14:29:11Z</time>
      </trkpt>
      <trkpt lat="44.66245" lon="-1.25024">
        <ele>6.87</ele>
        <time>2021-07-01T14:29:12Z</time>
      </trkpt>
      <trkpt lat="44.6623" lon="-1.25037">
        <ele>7.35</ele>
        <time>2021-07-01T14:29:13Z</time>
      </trkpt>
      <trkpt lat="44.66215" lon="-1.2505">
        <ele>7.83</ele>
        <time>2021-07-01T14:29:14Z</time>
      </trkpt>
      <trkpt lat="44.662" lon="-1.25063">
        <ele>8.79</ele>
        <time>2021-07-01T14:29:15Z</time>
      </trkpt>
      <trkpt lat="44.66083" lon="-1.25184">
        <ele>6.87</ele>
        <time>2021-07-01T14:29:24Z</time>
      </trkpt>
      <trkpt lat="44.66072" lon="-1.25194">
        <ele>6.39</ele>
        <time>2021-07-01T14:29:25Z</time>
      </trkpt>
      <trkpt lat="44.6606" lon="-1.25201">
        <ele>6.39</ele>
        <time>2021-07-01T14:29:26Z</time>
      </trkpt>
      <trkpt lat="44.66048" lon="-1.25208">
        <ele>6.39</ele>
        <time>2021-07-01T14:29:27Z</time>
      </trkpt>
      <trkpt lat="44.65964" lon="-1.25213">
        <ele>1.58</ele>
        <time>2021-07-01T14:29:35Z</time>
      </trkpt>
      <trkpt lat="44.65905" lon="-1.25191">
        <ele>3.5</ele>
        <time>2021-07-01T14:29:43Z</time>
      </trkpt>
      <trkpt lat="44.65868" lon="-1.25169">
        <ele>2.06</ele>
        <time>2021-07-01T14:29:48Z</time>
      </trkpt>
      <trkpt lat="44.65861" lon="-1.25167">
        <ele>2.54</ele>
        <time>2021-07-01T14:29:49Z</time>
      </trkpt>
      <trkpt lat="44.65854" lon="-1.25165">
        <ele>2.54</ele>
        <time>2021-07-01T14:29:50Z</time>
      </trkpt>
      <trkpt lat="44.65808" lon="-1.25154">
        <ele>1.58</ele>
        <time>2021-07-01T14:29:57Z</time>
      </trkpt>
      <trkpt lat="44.65793" lon="-1.25155">
        <ele>1.1</ele>
        <time>2021-07-01T14:29:58Z</time>
      </trkpt>
      <trkpt lat="44.65784" lon="-1.25158">
        <ele>0.62</ele>
        <time>2021-07-01T14:29:59Z</time>
      </trkpt>
      <trkpt lat="44.65688" lon="-1.25189">
        <ele>0.62</ele>
        <time>2021-07-01T14:30:10Z</time>
      </trkpt>
      <trkpt lat="44.65596" lon="-1.25183">
        <ele>2.54</ele>
        <time>2021-07-01T14:30:20Z</time>
      </trkpt>
      <trkpt lat="44.65521" lon="-1.25195">
        <ele>3.98</ele>
        <time>2021-07-01T14:30:31Z</time>
      </trkpt>
      <trkpt lat="44.65498" lon="-1.25208">
        <ele>3.5</ele>
        <time>2021-07-01T14:30:39Z</time>
      </trkpt>
      <trkpt lat="44.65498" lon="-1.25208">
        <ele>3.5</ele>
        <time>2021-07-01T14:30:40Z</time>
      </trkpt>
      <trkpt lat="44.65497" lon="-1.25203">
        <ele>3.5</ele>
        <time>2021-07-01T14:30:41Z</time>
      </trkpt>
      <trkpt lat="44.65495" lon="-1.25199">
        <ele>3.5</ele>
        <time>2021-07-01T14:30:42Z</time>
      </trkpt>
      <trkpt lat="44.65492" lon="-1.2519">
        <ele>3.02</ele>
        <time>2021-07-01T14:30:43Z</time>
      </trkpt>
      <trkpt lat="44.65488" lon="-1.2518">
        <ele>2.54</ele>
        <time>2021-07-01T14:30:45Z</time>
      </trkpt>
      <trkpt lat="44.65488" lon="-1.2518">
        <ele>2.54</ele>
        <time>2021-07-01T14:30:46Z</time>
      </trkpt>
      <trkpt lat="44.65483" lon="-1.25163">
        <ele>2.54</ele>
        <time>2021-07-01T14:30:47Z</time>
      </trkpt>
      <trkpt lat="44.65479" lon="-1.25159">
        <ele>3.02</ele>
        <time>2021-07-01T14:30:48Z</time>
      </trkpt>
      <trkpt lat="44.65474" lon="-1.25155">
        <ele>3.02</ele>
        <time>2021-07-01T14:30:49Z</time>
      </trkpt>
      <trkpt lat="44.6547" lon="-1.2515">
        <ele>3.02</ele>
        <time>2021-07-01T14:30:50Z</time>
      </trkpt>
      <trkpt lat="44.6547" lon="-1.2515">
        <ele>3.02</ele>
        <time>2021-07-01T14:30:51Z</time>
      </trkpt>
      <trkpt lat="44.65459" lon="-1.2514">
        <ele>3.5</ele>
        <time>2021-07-01T14:30:52Z</time>
      </trkpt>
      <trkpt lat="44.65453" lon="-1.25136">
        <ele>3.5</ele>
        <time>2021-07-01T14:30:53Z</time>
      </trkpt>
      <trkpt lat="44.65453" lon="-1.25136">
        <ele>3.98</ele>
        <time>2021-07-01T14:30:54Z</time>
      </trkpt>
      <trkpt lat="44.65446" lon="-1.25135">
        <ele>3.98</ele>
        <time>2021-07-01T14:30:55Z</time>
      </trkpt>
      <trkpt lat="44.65407" lon="-1.25127">
        <ele>5.91</ele>
        <time>2021-07-01T14:31:00Z</time>
      </trkpt>
      <trkpt lat="44.65321" lon="-1.25147">
        <ele>5.91</ele>
        <time>2021-07-01T14:31:10Z</time>
      </trkpt>
      <trkpt lat="44.65313" lon="-1.25148">
        <ele>5.91</ele>
        <time>2021-07-01T14:31:11Z</time>
      </trkpt>
      <trkpt lat="44.65304" lon="-1.25148">
        <ele>5.91</ele>
        <time>2021-07-01T14:31:12Z</time>
      </trkpt>
      <trkpt lat="44.65271" lon="-1.25141">
        <ele>4.46</ele>
        <time>2021-07-01T14:31:16Z</time>
      </trkpt>
      <trkpt lat="44.65262" lon="-1.25139">
        <ele>4.46</ele>
        <time>2021-07-01T14:31:17Z</time>
      </trkpt>
      <trkpt lat="44.65238" lon="-1.25123">
        <ele>3.5</ele>
        <time>2021-07-01T14:31:21Z</time>
      </trkpt>
      <trkpt lat="44.65231" lon="-1.25117">
        <ele>3.5</ele>
        <time>2021-07-01T14:31:22Z</time>
      </trkpt>
      <trkpt lat="44.65223" lon="-1.25112">
        <ele>3.5</ele>
        <time>2021-07-01T14:31:23Z</time>
      </trkpt>
      <trkpt lat="44.65182" lon="-1.25101">
        <ele>3.5</ele>
        <time>2021-07-01T14:31:27Z</time>
      </trkpt>
      <trkpt lat="44.65173" lon="-1.251">
        <ele>3.02</ele>
        <time>2021-07-01T14:31:28Z</time>
      </trkpt>
      <trkpt lat="44.65173" lon="-1.251">
        <ele>2.54</ele>
        <time>2021-07-01T14:31:29Z</time>
      </trkpt>
      <trkpt lat="44.65137" lon="-1.25113">
        <ele>1.1</ele>
        <time>2021-07-01T14:31:32Z</time>
      </trkpt>
      <trkpt lat="44.65129" lon="-1.25117">
        <ele>1.1</ele>
        <time>2021-07-01T14:31:33Z</time>
      </trkpt>
      <trkpt lat="44.65113" lon="-1.25121">
        <ele>3.02</ele>
        <time>2021-07-01T14:31:35Z</time>
      </trkpt>
      <trkpt lat="44.65007" lon="-1.25127">
        <ele>3.02</ele>
        <time>2021-07-01T14:31:46Z</time>
      </trkpt>
      <trkpt lat="44.64998" lon="-1.25131">
        <ele>3.5</ele>
        <time>2021-07-01T14:31:47Z</time>
      </trkpt>
      <trkpt lat="44.64988" lon="-1.25135">
        <ele>4.46</ele>
        <time>2021-07-01T14:31:48Z</time>
      </trkpt>
      <trkpt lat="44.64969" lon="-1.25144">
        <ele>5.91</ele>
        <time>2021-07-01T14:31:50Z</time>
      </trkpt>
      <trkpt lat="44.6496" lon="-1.25147">
        <ele>6.87</ele>
        <time>2021-07-01T14:31:51Z</time>
      </trkpt>
      <trkpt lat="44.64921" lon="-1.25163">
        <ele>5.42</ele>
        <time>2021-07-01T14:31:55Z</time>
      </trkpt>
      <trkpt lat="44.64921" lon="-1.25163">
        <ele>4.94</ele>
        <time>2021-07-01T14:31:56Z</time>
      </trkpt>
      <trkpt lat="44.64911" lon="-1.25169">
        <ele>5.91</ele>
        <time>2021-07-01T14:31:57Z</time>
      </trkpt>
      <trkpt lat="44.64901" lon="-1.25175">
        <ele>5.91</ele>
        <time>2021-07-01T14:31:58Z</time>
      </trkpt>
      <trkpt lat="44.64882" lon="-1.25187">
        <ele>6.39</ele>
        <time>2021-07-01T14:31:59Z</time>
      </trkpt>
      <trkpt lat="44.64882" lon="-1.25187">
        <ele>6.87</ele>
        <time>2021-07-01T14:32:00Z</time>
      </trkpt>
      <trkpt lat="44.64874" lon="-1.25197">
        <ele>6.87</ele>
        <time>2021-07-01T14:32:01Z</time>
      </trkpt>
      <trkpt lat="44.64867" lon="-1.25207">
        <ele>7.35</ele>
        <time>2021-07-01T14:32:02Z</time>
      </trkpt>
      <trkpt lat="44.64849" lon="-1.25242">
        <ele>8.31</ele>
        <time>2021-07-01T14:32:03Z</time>
      </trkpt>
      <trkpt lat="44.64849" lon="-1.25242">
        <ele>8.79</ele>
        <time>2021-07-01T14:32:04Z</time>
      </trkpt>
      <trkpt lat="44.64841" lon="-1.25271">
        <ele>8.79</ele>
        <time>2021-07-01T14:32:05Z</time>
      </trkpt>
      <trkpt lat="44.64834" lon="-1.25298">
        <ele>8.79</ele>
        <time>2021-07-01T14:32:09Z</time>
      </trkpt>
      <trkpt lat="44.6483" lon="-1.2531">
        <ele>8.79</ele>
        <time>2021-07-01T14:32:10Z</time>
      </trkpt>
      <trkpt lat="44.64824" lon="-1.25321">
        <ele>8.31</ele>
        <time>2021-07-01T14:32:11Z</time>
      </trkpt>
      <trkpt lat="44.64813" lon="-1.25336">
        <ele>8.31</ele>
        <time>2021-07-01T14:32:12Z</time>
      </trkpt>
      <trkpt lat="44.64813" lon="-1.25336">
        <ele>7.35</ele>
        <time>2021-07-01T14:32:13Z</time>
      </trkpt>
      <trkpt lat="44.64797" lon="-1.25347">
        <ele>7.35</ele>
        <time>2021-07-01T14:32:14Z</time>
      </trkpt>
      <trkpt lat="44.64788" lon="-1.2535">
        <ele>6.87</ele>
        <time>2021-07-01T14:32:15Z</time>
      </trkpt>
      <trkpt lat="44.64788" lon="-1.2535">
        <ele>7.35</ele>
        <time>2021-07-01T14:32:16Z</time>
      </trkpt>
      <trkpt lat="44.6475" lon="-1.25357">
        <ele>9.27</ele>
        <time>2021-07-01T14:32:18Z</time>
      </trkpt>
      <trkpt lat="44.64742" lon="-1.25359">
        <ele>8.79</ele>
        <time>2021-07-01T14:32:19Z</time>
      </trkpt>
      <trkpt lat="44.64742" lon="-1.25359">
        <ele>7.83</ele>
        <time>2021-07-01T14:32:20Z</time>
      </trkpt>
      <trkpt lat="44.64728" lon="-1.25374">
        <ele>7.83</ele>
        <time>2021-07-01T14:32:21Z</time>
      </trkpt>
      <trkpt lat="44.64728" lon="-1.25374">
        <ele>7.83</ele>
        <time>2021-07-01T14:32:22Z</time>
      </trkpt>
      <trkpt lat="44.64722" lon="-1.25382">
        <ele>8.31</ele>
        <time>2021-07-01T14:32:23Z</time>
      </trkpt>
      <trkpt lat="44.64709" lon="-1.254">
        <ele>8.79</ele>
        <time>2021-07-01T14:32:24Z</time>
      </trkpt>
      <trkpt lat="44.64709" lon="-1.254">
        <ele>8.79</ele>
        <time>2021-07-01T14:32:25Z</time>
      </trkpt>
      <trkpt lat="44.64703" lon="-1.25409">
        <ele>8.79</ele>
        <time>2021-07-01T14:32:26Z</time>
      </trkpt>
      <trkpt lat="44.64696" lon="-1.25418">
        <ele>7.83</ele>
        <time>2021-07-01T14:32:27Z</time>
      </trkpt>
      <trkpt lat="44.64688" lon="-1.25422">
        <ele>6.87</ele>
        <time>2021-07-01T14:32:28Z</time>
      </trkpt>
      <trkpt lat="44.64679" lon="-1.25428">
        <ele>6.39</ele>
        <time>2021-07-01T14:32:29Z</time>
      </trkpt>
      <trkpt lat="44.64651" lon="-1.25443">
        <ele>5.42</ele>
        <time>2021-07-01T14:32:33Z</time>
      </trkpt>
      <trkpt lat="44.64634" lon="-1.25448">
        <ele>5.91</ele>
        <time>2021-07-01T14:32:34Z</time>
      </trkpt>
      <trkpt lat="44.64634" lon="-1.25448">
        <ele>6.87</ele>
        <time>2021-07-01T14:32:35Z</time>
      </trkpt>
      <trkpt lat="44.64618" lon="-1.25448">
        <ele>6.87</ele>
        <time>2021-07-01T14:32:36Z</time>
      </trkpt>
      <trkpt lat="44.6461" lon="-1.25445">
        <ele>7.35</ele>
        <time>2021-07-01T14:32:37Z</time>
      </trkpt>
      <trkpt lat="44.64602" lon="-1.25442">
        <ele>7.35</ele>
        <time>2021-07-01T14:32:38Z</time>
      </trkpt>
      <trkpt lat="44.64602" lon="-1.25442">
        <ele>7.83</ele>
        <time>2021-07-01T14:32:39Z</time>
      </trkpt>
      <trkpt lat="44.64562" lon="-1.25404">
        <ele>7.35</ele>
        <time>2021-07-01T14:32:45Z</time>
      </trkpt>
      <trkpt lat="44.64551" lon="-1.25404">
        <ele>7.35</ele>
        <time>2021-07-01T14:32:46Z</time>
      </trkpt>
      <trkpt lat="44.64551" lon="-1.25404">
        <ele>6.87</ele>
        <time>2021-07-01T14:32:48Z</time>
      </trkpt>
      <trkpt lat="44.64545" lon="-1.25403">
        <ele>7.35</ele>
        <time>2021-07-01T14:32:49Z</time>
      </trkpt>
      <trkpt lat="44.6453" lon="-1.25385">
        <ele>7.35</ele>
        <time>2021-07-01T14:32:51Z</time>
      </trkpt>
      <trkpt lat="44.64531" lon="-1.25385">
        <ele>6.87</ele>
        <time>2021-07-01T14:32:52Z</time>
      </trkpt>
      <trkpt lat="44.64515" lon="-1.25379">
        <ele>6.87</ele>
        <time>2021-07-01T14:32:53Z</time>
      </trkpt>
      <trkpt lat="44.64453" lon="-1.2536">
        <ele>3.98</ele>
        <time>2021-07-01T14:32:59Z</time>
      </trkpt>
      <trkpt lat="44.64453" lon="-1.2536">
        <ele>4.46</ele>
        <time>2021-07-01T14:33:00Z</time>
      </trkpt>
      <trkpt lat="44.64446" lon="-1.25363">
        <ele>5.42</ele>
        <time>2021-07-01T14:33:01Z</time>
      </trkpt>
      <trkpt lat="44.64439" lon="-1.25365">
        <ele>4.94</ele>
        <time>2021-07-01T14:33:02Z</time>
      </trkpt>
      <trkpt lat="44.64432" lon="-1.25369">
        <ele>4.46</ele>
        <time>2021-07-01T14:33:03Z</time>
      </trkpt>
      <trkpt lat="44.64425" lon="-1.2538">
        <ele>4.46</ele>
        <time>2021-07-01T14:33:04Z</time>
      </trkpt>
      <trkpt lat="44.64419" lon="-1.25392">
        <ele>3.98</ele>
        <time>2021-07-01T14:33:05Z</time>
      </trkpt>
      <trkpt lat="44.64412" lon="-1.25403">
        <ele>3.98</ele>
        <time>2021-07-01T14:33:06Z</time>
      </trkpt>
      <trkpt lat="44.64405" lon="-1.25414">
        <ele>4.46</ele>
        <time>2021-07-01T14:33:07Z</time>
      </trkpt>
      <trkpt lat="44.64399" lon="-1.25426">
        <ele>4.94</ele>
        <time>2021-07-01T14:33:08Z</time>
      </trkpt>
      <trkpt lat="44.64399" lon="-1.25426">
        <ele>4.94</ele>
        <time>2021-07-01T14:33:09Z</time>
      </trkpt>
      <trkpt lat="44.64381" lon="-1.25443">
        <ele>4.46</ele>
        <time>2021-07-01T14:33:10Z</time>
      </trkpt>
      <trkpt lat="44.64363" lon="-1.25454">
        <ele>4.46</ele>
        <time>2021-07-01T14:33:11Z</time>
      </trkpt>
      <trkpt lat="44.64363" lon="-1.25454">
        <ele>3.98</ele>
        <time>2021-07-01T14:33:12Z</time>
      </trkpt>
      <trkpt lat="44.64354" lon="-1.2546">
        <ele>4.94</ele>
        <time>2021-07-01T14:33:13Z</time>
      </trkpt>
      <trkpt lat="44.64344" lon="-1.25462">
        <ele>4.94</ele>
        <time>2021-07-01T14:33:14Z</time>
      </trkpt>
      <trkpt lat="44.64214" lon="-1.25478">
        <ele>5.42</ele>
        <time>2021-07-01T14:33:25Z</time>
      </trkpt>
      <trkpt lat="44.64196" lon="-1.25482">
        <ele>5.91</ele>
        <time>2021-07-01T14:33:28Z</time>
      </trkpt>
      <trkpt lat="44.64185" lon="-1.25484">
        <ele>6.39</ele>
        <time>2021-07-01T14:33:29Z</time>
      </trkpt>
      <trkpt lat="44.64165" lon="-1.25479">
        <ele>6.39</ele>
        <time>2021-07-01T14:33:30Z</time>
      </trkpt>
      <trkpt lat="44.64165" lon="-1.25479">
        <ele>7.35</ele>
        <time>2021-07-01T14:33:31Z</time>
      </trkpt>
      <trkpt lat="44.64155" lon="-1.25476">
        <ele>6.87</ele>
        <time>2021-07-01T14:33:32Z</time>
      </trkpt>
      <trkpt lat="44.64134" lon="-1.25471">
        <ele>6.39</ele>
        <time>2021-07-01T14:33:34Z</time>
      </trkpt>
      <trkpt lat="44.64124" lon="-1.25468">
        <ele>6.87</ele>
        <time>2021-07-01T14:33:35Z</time>
      </trkpt>
      <trkpt lat="44.64079" lon="-1.25463">
        <ele>9.27</ele>
        <time>2021-07-01T14:33:40Z</time>
      </trkpt>
      <trkpt lat="44.64071" lon="-1.25461">
        <ele>9.27</ele>
        <time>2021-07-01T14:33:41Z</time>
      </trkpt>
      <trkpt lat="44.64063" lon="-1.25459">
        <ele>9.27</ele>
        <time>2021-07-01T14:33:42Z</time>
      </trkpt>
      <trkpt lat="44.64021" lon="-1.25442">
        <ele>8.31</ele>
        <time>2021-07-01T14:33:47Z</time>
      </trkpt>
      <trkpt lat="44.64013" lon="-1.25438">
        <ele>8.31</ele>
        <time>2021-07-01T14:33:48Z</time>
      </trkpt>
      <trkpt lat="44.64004" lon="-1.25434">
        <ele>8.31</ele>
        <time>2021-07-01T14:33:49Z</time>
      </trkpt>
      <trkpt lat="44.63905" lon="-1.25428">
        <ele>6.87</ele>
        <time>2021-07-01T14:34:01Z</time>
      </trkpt>
      <trkpt lat="44.63869" lon="-1.2543">
        <ele>6.39</ele>
        <time>2021-07-01T14:34:04Z</time>
      </trkpt>
      <trkpt lat="44.63822" lon="-1.25439">
        <ele>3.98</ele>
        <time>2021-07-01T14:34:09Z</time>
      </trkpt>
      <trkpt lat="44.63754" lon="-1.25436">
        <ele>2.54</ele>
        <time>2021-07-01T14:34:16Z</time>
      </trkpt>
      <trkpt lat="44.63744" lon="-1.25436">
        <ele>3.5</ele>
        <time>2021-07-01T14:34:17Z</time>
      </trkpt>
      <trkpt lat="44.63734" lon="-1.25435">
        <ele>3.5</ele>
        <time>2021-07-01T14:34:18Z</time>
      </trkpt>
      <trkpt lat="44.63725" lon="-1.25439">
        <ele>2.54</ele>
        <time>2021-07-01T14:34:19Z</time>
      </trkpt>
      <trkpt lat="44.63715" lon="-1.25443">
        <ele>2.54</ele>
        <time>2021-07-01T14:34:20Z</time>
      </trkpt>
      <trkpt lat="44.63706" lon="-1.25447">
        <ele>3.02</ele>
        <time>2021-07-01T14:34:21Z</time>
      </trkpt>
      <trkpt lat="44.63696" lon="-1.25451">
        <ele>2.54</ele>
        <time>2021-07-01T14:34:22Z</time>
      </trkpt>
      <trkpt lat="44.63685" lon="-1.25456">
        <ele>3.02</ele>
        <time>2021-07-01T14:34:23Z</time>
      </trkpt>
      <trkpt lat="44.63569" lon="-1.25443">
        <ele>4.46</ele>
        <time>2021-07-01T14:34:34Z</time>
      </trkpt>
      <trkpt lat="44.63569" lon="-1.25443">
        <ele>5.91</ele>
        <time>2021-07-01T14:34:35Z</time>
      </trkpt>
      <trkpt lat="44.63569" lon="-1.25443">
        <ele>5.91</ele>
        <time>2021-07-01T14:34:36Z</time>
      </trkpt>
      <trkpt lat="44.63506" lon="-1.25404">
        <ele>5.42</ele>
        <time>2021-07-01T14:34:43Z</time>
      </trkpt>
      <trkpt lat="44.63487" lon="-1.25396">
        <ele>5.42</ele>
        <time>2021-07-01T14:34:44Z</time>
      </trkpt>
      <trkpt lat="44.63478" lon="-1.25395">
        <ele>4.94</ele>
        <time>2021-07-01T14:34:45Z</time>
      </trkpt>
      <trkpt lat="44.63365" lon="-1.2538">
        <ele>-0.34</ele>
        <time>2021-07-01T14:34:58Z</time>
      </trkpt>
      <trkpt lat="44.63232" lon="-1.25367">
        <ele>-1.3</ele>
        <time>2021-07-01T14:35:11Z</time>
      </trkpt>
      <trkpt lat="44.63179" lon="-1.25367">
        <ele>-2.27</ele>
        <time>2021-07-01T14:35:17Z</time>
      </trkpt>
      <trkpt lat="44.63179" lon="-1.25367">
        <ele>-1.79</ele>
        <time>2021-07-01T14:35:18Z</time>
      </trkpt>
      <trkpt lat="44.63175" lon="-1.25368">
        <ele>-1.3</ele>
        <time>2021-07-01T14:35:19Z</time>
      </trkpt>
      <trkpt lat="44.63163" lon="-1.25382">
        <ele>-1.3</ele>
        <time>2021-07-01T14:35:22Z</time>
      </trkpt>
      <trkpt lat="44.6316" lon="-1.25386">
        <ele>-0.82</ele>
        <time>2021-07-01T14:35:23Z</time>
      </trkpt>
      <trkpt lat="44.63156" lon="-1.25388">
        <ele>0.14</ele>
        <time>2021-07-01T14:35:24Z</time>
      </trkpt>
      <trkpt lat="44.63156" lon="-1.25388">
        <ele>1.1</ele>
        <time>2021-07-01T14:35:25Z</time>
      </trkpt>
      <trkpt lat="44.63152" lon="-1.2539">
        <ele>1.58</ele>
        <time>2021-07-01T14:35:26Z</time>
      </trkpt>
      <trkpt lat="44.63146" lon="-1.25387">
        <ele>2.06</ele>
        <time>2021-07-01T14:35:27Z</time>
      </trkpt>
      <trkpt lat="44.63142" lon="-1.25383">
        <ele>1.58</ele>
        <time>2021-07-01T14:35:28Z</time>
      </trkpt>
      <trkpt lat="44.6314" lon="-1.25382">
        <ele>1.58</ele>
        <time>2021-07-01T14:35:29Z</time>
      </trkpt>
      <trkpt lat="44.63133" lon="-1.25364">
        <ele>1.58</ele>
        <time>2021-07-01T14:35:30Z</time>
      </trkpt>
      <trkpt lat="44.63122" lon="-1.25359">
        <ele>2.06</ele>
        <time>2021-07-01T14:35:31Z</time>
      </trkpt>
      <trkpt lat="44.63122" lon="-1.25359">
        <ele>2.06</ele>
        <time>2021-07-01T14:35:32Z</time>
      </trkpt>
      <trkpt lat="44.63016" lon="-1.25303">
        <ele>6.87</ele>
        <time>2021-07-01T14:35:48Z</time>
      </trkpt>
      <trkpt lat="44.6301" lon="-1.25298">
        <ele>6.39</ele>
        <time>2021-07-01T14:35:50Z</time>
      </trkpt>
      <trkpt lat="44.62999" lon="-1.25287">
        <ele>6.39</ele>
        <time>2021-07-01T14:35:51Z</time>
      </trkpt>
      <trkpt lat="44.62999" lon="-1.25287">
        <ele>6.39</ele>
        <time>2021-07-01T14:35:52Z</time>
      </trkpt>
      <trkpt lat="44.62983" lon="-1.25284">
        <ele>6.39</ele>
        <time>2021-07-01T14:35:53Z</time>
      </trkpt>
      <trkpt lat="44.62975" lon="-1.25282">
        <ele>6.39</ele>
        <time>2021-07-01T14:35:54Z</time>
      </trkpt>
      <trkpt lat="44.62967" lon="-1.2528">
        <ele>6.39</ele>
        <time>2021-07-01T14:35:55Z</time>
      </trkpt>
      <trkpt lat="44.62967" lon="-1.2528">
        <ele>6.39</ele>
        <time>2021-07-01T14:35:56Z</time>
      </trkpt>
      <trkpt lat="44.62952" lon="-1.25279">
        <ele>6.39</ele>
        <time>2021-07-01T14:35:57Z</time>
      </trkpt>
      <trkpt lat="44.62945" lon="-1.25279">
        <ele>5.91</ele>
        <time>2021-07-01T14:35:58Z</time>
      </trkpt>
      <trkpt lat="44.62938" lon="-1.25276">
        <ele>5.91</ele>
        <time>2021-07-01T14:35:59Z</time>
      </trkpt>
      <trkpt lat="44.62931" lon="-1.25272">
        <ele>6.39</ele>
        <time>2021-07-01T14:36:00Z</time>
      </trkpt>
      <trkpt lat="44.62924" lon="-1.25268">
        <ele>6.39</ele>
        <time>2021-07-01T14:36:01Z</time>
      </trkpt>
      <trkpt lat="44.62918" lon="-1.25264">
        <ele>6.39</ele>
        <time>2021-07-01T14:36:02Z</time>
      </trkpt>
      <trkpt lat="44.62918" lon="-1.25264">
        <ele>6.39</ele>
        <time>2021-07-01T14:36:03Z</time>
      </trkpt>
      <trkpt lat="44.62912" lon="-1.25259">
        <ele>5.91</ele>
        <time>2021-07-01T14:36:04Z</time>
      </trkpt>
      <trkpt lat="44.62904" lon="-1.25244">
        <ele>5.91</ele>
        <time>2021-07-01T14:36:05Z</time>
      </trkpt>
      <trkpt lat="44.62904" lon="-1.25244">
        <ele>5.91</ele>
        <time>2021-07-01T14:36:06Z</time>
      </trkpt>
      <trkpt lat="44.629" lon="-1.25236">
        <ele>5.91</ele>
        <time>2021-07-01T14:36:07Z</time>
      </trkpt>
      <trkpt lat="44.62897" lon="-1.25228">
        <ele>6.39</ele>
        <time>2021-07-01T14:36:08Z</time>
      </trkpt>
      <trkpt lat="44.62895" lon="-1.25211">
        <ele>6.87</ele>
        <time>2021-07-01T14:36:09Z</time>
      </trkpt>
      <trkpt lat="44.62895" lon="-1.25211">
        <ele>6.87</ele>
        <time>2021-07-01T14:36:10Z</time>
      </trkpt>
      <trkpt lat="44.62893" lon="-1.25198">
        <ele>6.87</ele>
        <time>2021-07-01T14:36:11Z</time>
      </trkpt>
      <trkpt lat="44.62892" lon="-1.25191">
        <ele>6.87</ele>
        <time>2021-07-01T14:36:12Z</time>
      </trkpt>
      <trkpt lat="44.62886" lon="-1.25149">
        <ele>4.94</ele>
        <time>2021-07-01T14:36:18Z</time>
      </trkpt>
      <trkpt lat="44.62885" lon="-1.25141">
        <ele>4.94</ele>
        <time>2021-07-01T14:36:19Z</time>
      </trkpt>
      <trkpt lat="44.62885" lon="-1.25141">
        <ele>4.94</ele>
        <time>2021-07-01T14:36:20Z</time>
      </trkpt>
      <trkpt lat="44.62884" lon="-1.25133">
        <ele>4.94</ele>
        <time>2021-07-01T14:36:21Z</time>
      </trkpt>
      <trkpt lat="44.62882" lon="-1.25118">
        <ele>4.46</ele>
        <time>2021-07-01T14:36:22Z</time>
      </trkpt>
      <trkpt lat="44.62882" lon="-1.25118">
        <ele>4.94</ele>
        <time>2021-07-01T14:36:23Z</time>
      </trkpt>
      <trkpt lat="44.62871" lon="-1.25116">
        <ele>4.94</ele>
        <time>2021-07-01T14:36:24Z</time>
      </trkpt>
      <trkpt lat="44.62868" lon="-1.25109">
        <ele>4.94</ele>
        <time>2021-07-01T14:36:25Z</time>
      </trkpt>
      <trkpt lat="44.62864" lon="-1.25103">
        <ele>4.94</ele>
        <time>2021-07-01T14:36:26Z</time>
      </trkpt>
      <trkpt lat="44.62854" lon="-1.25094">
        <ele>5.91</ele>
        <time>2021-07-01T14:36:27Z</time>
      </trkpt>
      <trkpt lat="44.62774" lon="-1.25034">
        <ele>6.87</ele>
        <time>2021-07-01T14:36:41Z</time>
      </trkpt>
      <trkpt lat="44.62699" lon="-1.24974">
        <ele>3.98</ele>
        <time>2021-07-01T14:36:55Z</time>
      </trkpt>
      <trkpt lat="44.62594" lon="-1.24938">
        <ele>4.94</ele>
        <time>2021-07-01T14:37:09Z</time>
      </trkpt>
      <trkpt lat="44.62542" lon="-1.24921">
        <ele>6.39</ele>
        <time>2021-07-01T14:37:19Z</time>
      </trkpt>
      <trkpt lat="44.62454" lon="-1.24891">
        <ele>4.46</ele>
        <time>2021-07-01T14:37:34Z</time>
      </trkpt>
      <trkpt lat="44.62386" lon="-1.24863">
        <ele>3.02</ele>
        <time>2021-07-01T14:37:45Z</time>
      </trkpt>
      <trkpt lat="44.62386" lon="-1.24863">
        <ele>2.54</ele>
        <time>2021-07-01T14:37:46Z</time>
      </trkpt>
      <trkpt lat="44.62376" lon="-1.24857">
        <ele>2.54</ele>
        <time>2021-07-01T14:37:47Z</time>
      </trkpt>
      <trkpt lat="44.62376" lon="-1.24857">
        <ele>2.06</ele>
        <time>2021-07-01T14:37:48Z</time>
      </trkpt>
      <trkpt lat="44.6237" lon="-1.24847">
        <ele>2.06</ele>
        <time>2021-07-01T14:37:49Z</time>
      </trkpt>
      <trkpt lat="44.62367" lon="-1.24842">
        <ele>1.58</ele>
        <time>2021-07-01T14:37:50Z</time>
      </trkpt>
      <trkpt lat="44.62365" lon="-1.24836">
        <ele>1.58</ele>
        <time>2021-07-01T14:37:51Z</time>
      </trkpt>
      <trkpt lat="44.62362" lon="-1.2483">
        <ele>1.1</ele>
        <time>2021-07-01T14:37:52Z</time>
      </trkpt>
      <trkpt lat="44.62362" lon="-1.2483">
        <ele>0.62</ele>
        <time>2021-07-01T14:37:53Z</time>
      </trkpt>
      <trkpt lat="44.62359" lon="-1.24825">
        <ele>0.62</ele>
        <time>2021-07-01T14:37:54Z</time>
      </trkpt>
      <trkpt lat="44.62357" lon="-1.24814">
        <ele>-0.34</ele>
        <time>2021-07-01T14:37:55Z</time>
      </trkpt>
      <trkpt lat="44.62358" lon="-1.24807">
        <ele>-0.82</ele>
        <time>2021-07-01T14:37:56Z</time>
      </trkpt>
      <trkpt lat="44.62358" lon="-1.24807">
        <ele>-1.3</ele>
        <time>2021-07-01T14:37:57Z</time>
      </trkpt>
      <trkpt lat="44.62358" lon="-1.24801">
        <ele>-1.3</ele>
        <time>2021-07-01T14:37:58Z</time>
      </trkpt>
      <trkpt lat="44.62358" lon="-1.24794">
        <ele>-1.79</ele>
        <time>2021-07-01T14:37:59Z</time>
      </trkpt>
      <trkpt lat="44.62365" lon="-1.24766">
        <ele>-2.75</ele>
        <time>2021-07-01T14:38:02Z</time>
      </trkpt>
      <trkpt lat="44.62365" lon="-1.24766">
        <ele>-2.75</ele>
        <time>2021-07-01T14:38:03Z</time>
      </trkpt>
      <trkpt lat="44.62369" lon="-1.24757">
        <ele>-2.75</ele>
        <time>2021-07-01T14:38:04Z</time>
      </trkpt>
      <trkpt lat="44.62369" lon="-1.24757">
        <ele>-2.75</ele>
        <time>2021-07-01T14:38:05Z</time>
      </trkpt>
      <trkpt lat="44.6237" lon="-1.24753">
        <ele>-2.75</ele>
        <time>2021-07-01T14:38:06Z</time>
      </trkpt>
      <trkpt lat="44.62372" lon="-1.2475">
        <ele>-2.75</ele>
        <time>2021-07-01T14:38:07Z</time>
      </trkpt>
      <trkpt lat="44.62381" lon="-1.24735">
        <ele>-3.23</ele>
        <time>2021-07-01T14:38:18Z</time>
      </trkpt>
    </trkseg>
  </trk>
</gpx>